Time;durP1;ratioP1;P1;durP2;ratioP2;P2;SDS_P1;SDS_P2;PMS_P1;PMS_P2;Temp;Humidity;BMP_temperature;BMP_pressure;BME280_temperature;BME280_humidity;BME280_pressure;Samples;Min_cycle;Max_cycle;Signal;HPM_P1;HPM_P2
2021/01/26 00:01:23;;;;;;;17.57;15.43;;;;;;;-1.76;100.00;97562.31;5004613;28;20200;-71
2021/01/26 00:03:50;;;;;;;17.43;15.60;;;;;;;-1.70;100.00;97575.88;5004218;28;20256;-73
2021/01/26 00:06:17;;;;;;;14.67;13.17;;;;;;;-1.61;100.00;97576.09;5003590;28;20201;-72
2021/01/26 00:08:44;;;;;;;17.50;15.60;;;;;;;-1.76;100.00;97572.69;5004485;28;20224;-71
2021/01/26 00:11:12;;;;;;;18.53;15.57;;;;;;;-1.97;100.00;97577.47;5005322;28;20558;-73
2021/01/26 00:13:40;;;;;;;15.03;13.43;;;;;;;-1.84;100.00;97577.56;5002591;28;20260;-72
2021/01/26 00:16:07;;;;;;;17.17;15.43;;;;;;;-1.94;100.00;97574.69;5004340;28;20353;-72
2021/01/26 00:18:34;;;;;;;15.03;13.63;;;;;;;-1.98;100.00;97582.78;5003752;28;21038;-72
2021/01/26 00:21:01;;;;;;;15.80;14.30;;;;;;;-2.00;100.00;97577.69;5003472;28;20220;-72
2021/01/26 00:23:28;;;;;;;17.03;15.23;;;;;;;-2.02;100.00;97582.13;5003375;28;20573;-73
2021/01/26 00:25:56;;;;;;;17.37;15.67;;;;;;;-1.93;100.00;97580.75;5005457;28;20448;-72
2021/01/26 00:28:23;;;;;;;15.47;13.87;;;;;;;-2.00;100.00;97582.06;5002067;28;20642;-71
2021/01/26 00:30:50;;;;;;;15.47;13.87;;;;;;;-2.05;100.00;97585.78;5002175;28;20624;-72
2021/01/26 00:33:19;;;;;;;16.33;14.67;;;;;;;-2.05;100.00;97583.19;5004824;28;20232;-73
2021/01/26 00:35:46;;;;;;;17.40;15.60;;;;;;;-2.06;100.00;97591.91;5002332;28;20209;-73
2021/01/26 00:38:13;;;;;;;15.53;13.50;;;;;;;-2.04;100.00;97599.56;5002295;28;20494;-72
2021/01/26 00:40:40;;;;;;;16.70;15.10;;;;;;;-2.10;100.00;97592.16;5004519;28;20205;-72
2021/01/26 00:43:08;;;;;;;16.93;15.17;;;;;;;-1.94;100.00;97602.44;5003994;28;20483;-72
2021/01/26 00:45:35;;;;;;;16.00;14.40;;;;;;;-2.02;100.00;97599.50;5002742;28;20689;-71
2021/01/26 00:48:04;;;;;;;15.13;13.70;;;;;;;-2.04;100.00;97595.22;5003934;28;20308;-72
2021/01/26 00:50:31;;;;;;;16.13;14.57;;;;;;;-1.96;100.00;97601.72;5004182;28;20228;-73
2021/01/26 00:52:58;;;;;;;18.57;16.60;;;;;;;-1.92;100.00;97592.78;5000025;28;20217;-72
2021/01/26 00:55:26;;;;;;;18.40;15.87;;;;;;;-1.93;100.00;97604.13;5004817;28;20216;-72
2021/01/26 00:57:53;;;;;;;16.23;14.53;;;;;;;-2.00;100.00;97608.03;5002811;28;20720;-72
2021/01/26 01:00:23;;;;;;;14.70;13.13;;;;;;;-1.85;100.00;97596.66;5003932;28;20209;-72
2021/01/26 01:02:50;;;;;;;15.13;13.53;;;;;;;-2.00;100.00;97613.22;4999219;28;20732;-73
2021/01/26 01:05:18;;;;;;;14.00;12.53;;;;;;;-1.93;100.00;97612.72;5004389;28;20467;-73
2021/01/26 01:07:46;;;;;;;13.67;12.30;;;;;;;-1.85;100.00;97614.84;5002895;28;20448;-73
2021/01/26 01:10:15;;;;;;;11.60;10.50;;;;;;;-1.79;99.48;97603.25;5002518;28;20207;-71
2021/01/26 01:12:42;;;;;;;14.07;12.67;;;;;;;-1.84;99.85;97623.50;5003182;28;20468;-73
2021/01/26 01:15:11;;;;;;;12.40;11.10;;;;;;;-1.82;100.00;97621.63;5003572;28;20213;-72
2021/01/26 01:17:38;;;;;;;10.27;9.20;;;;;;;-1.85;99.40;97624.44;5000720;28;20220;-72
2021/01/26 01:20:08;;;;;;;11.23;10.13;;;;;;;-1.92;97.74;97629.16;4999580;28;20489;-71
2021/01/26 01:22:36;;;;;;;12.10;10.80;;;;;;;-1.95;99.08;97631.94;5003920;28;20212;-73
2021/01/26 01:25:04;;;;;;;8.47;7.77;;;;;;;-1.84;97.25;97626.91;5004388;28;20444;-73
2021/01/26 01:27:31;;;;;;;9.27;8.37;;;;;;;-1.97;97.79;97631.22;5003635;28;20443;-72
2021/01/26 01:29:58;;;;;;;10.13;9.20;;;;;;;-1.96;97.43;97622.47;4997839;28;20205;-72
2021/01/26 01:32:25;;;;;;;8.60;7.80;;;;;;;-2.02;96.92;97615.91;5002625;28;20209;-73
2021/01/26 01:34:52;;;;;;;10.33;8.20;;;;;;;-2.01;97.50;97614.16;5004080;28;20753;-73
2021/01/26 01:37:19;;;;;;;9.60;8.70;;;;;;;-2.13;95.41;97616.53;5002964;28;20213;-74
2021/01/26 01:39:47;;;;;;;8.43;7.60;;;;;;;-2.05;93.34;97616.94;5003451;28;20491;-73
2021/01/26 01:42:14;;;;;;;7.00;6.40;;;;;;;-2.13;95.09;97610.53;5003222;28;20636;-73
2021/01/26 01:44:41;;;;;;;8.07;7.37;;;;;;;-2.21;95.70;97618.78;5003416;28;20220;-72
2021/01/26 01:47:12;;;;;;;7.67;7.00;;;;;;;-2.27;95.32;97624.34;5000274;28;20452;-73
2021/01/26 01:49:43;;;;;;;7.77;7.03;;;;;;;-2.31;93.72;97625.47;5002844;28;20354;-72
2021/01/26 01:52:12;;;;;;;7.63;7.00;;;;;;;-2.37;95.06;97630.09;5002779;28;20205;-72
2021/01/26 01:54:44;;;;;;;6.67;6.17;;;;;;;-2.43;95.10;97633.06;5002702;28;20221;-72
2021/01/26 01:57:18;;;;;;;7.60;6.90;;;;;;;-2.42;95.10;97634.72;5003106;28;20201;-72
2021/01/26 01:59:49;;;;;;;7.53;6.93;;;;;;;-2.46;96.35;97633.25;5001572;28;20252;-73
2021/01/26 02:02:16;;;;;;;7.80;7.10;;;;;;;-2.53;96.27;97635.38;5002141;28;20220;-73
2021/01/26 02:04:43;;;;;;;7.73;6.83;;;;;;;-2.52;96.18;97641.38;5002589;28;20468;-72
2021/01/26 02:07:11;;;;;;;7.50;6.90;;;;;;;-2.50;97.21;97647.31;5004371;28;20414;-72
2021/01/26 02:09:40;;;;;;;6.70;6.10;;;;;;;-2.51;97.01;97638.69;5001507;28;20700;-72
2021/01/26 02:12:10;;;;;;;6.83;6.23;;;;;;;-2.42;97.20;97639.91;5003308;28;20947;-73
2021/01/26 02:14:42;;;;;;;7.30;6.70;;;;;;;-2.42;94.92;97639.91;5002503;28;20472;-73
2021/01/26 02:17:19;;;;;;;6.93;6.33;;;;;;;-2.53;95.85;97637.94;4999827;28;20214;-72
2021/01/26 02:20:11;;;;;;;7.03;6.43;;;;;;;-2.55;97.16;97632.03;5003008;28;20250;-73
2021/01/26 02:23:11;;;;;;;7.63;6.93;;;;;;;-2.66;98.13;97634.38;5001615;28;20221;-73
2021/01/26 02:26:00;;;;;;;7.27;6.67;;;;;;;-2.82;98.33;97634.47;5000110;28;20209;-73
2021/01/26 02:28:47;;;;;;;6.20;5.70;;;;;;;-2.86;97.98;97638.16;4999480;28;20205;-72
2021/01/26 02:31:37;;;;;;;7.03;6.47;;;;;;;-2.92;99.19;97645.34;5001072;28;20207;-72
2021/01/26 02:34:50;;;;;;;7.23;6.57;;;;;;;-2.96;99.98;97637.88;5002528;28;20309;-72
2021/01/26 02:37:55;;;;;;;8.17;7.37;;;;;;;-2.99;99.95;97643.22;4988450;28;20204;-73
2021/01/26 02:40:25;;;;;;;7.80;6.93;;;;;;;-3.04;100.00;97640.88;4996694;28;20224;-72
2021/01/26 02:43:04;;;;;;;7.97;7.27;;;;;;;-3.01;100.00;97645.91;4996798;28;20224;-73
2021/01/26 02:45:34;;;;;;;7.83;7.23;;;;;;;-3.13;100.00;97649.19;4996587;28;20577;-74
2021/01/26 02:48:16;;;;;;;8.50;7.83;;;;;;;-3.18;100.00;97648.63;4998617;28;20232;-72
2021/01/26 02:50:49;;;;;;;8.27;7.57;;;;;;;-3.23;100.00;97652.28;4995392;28;20197;-70
2021/01/26 02:53:21;;;;;;;8.87;8.07;;;;;;;-3.22;100.00;97648.78;4998408;28;20229;-72
2021/01/26 02:55:56;;;;;;;9.60;8.73;;;;;;;-3.38;100.00;97648.81;4993720;28;20204;-70
2021/01/26 02:58:27;;;;;;;8.83;8.03;;;;;;;-3.39;100.00;97651.47;4998858;28;20451;-71
2021/01/26 03:00:58;;;;;;;9.60;8.70;;;;;;;-3.32;100.00;97652.78;4994860;28;20672;-71
2021/01/26 03:03:32;;;;;;;10.97;9.13;;;;;;;-3.40;100.00;97649.81;4999750;28;20252;-72
2021/01/26 03:06:03;;;;;;;10.10;9.23;;;;;;;-3.46;100.00;97652.75;4999495;28;20932;-72
2021/01/26 03:08:34;;;;;;;10.50;9.40;;;;;;;-3.43;100.00;97655.16;5002435;28;20819;-74
2021/01/26 03:11:06;;;;;;;10.23;9.23;;;;;;;-3.51;100.00;97646.06;5001545;28;20451;-74
2021/01/26 03:13:36;;;;;;;11.10;10.00;;;;;;;-3.53;100.00;97655.66;5002851;28;20476;-76
2021/01/26 03:16:06;;;;;;;11.67;10.47;;;;;;;-3.53;100.00;97649.63;5005194;28;20454;-74
2021/01/26 03:18:39;;;;;;;11.90;10.70;;;;;;;-3.57;100.00;97655.91;4995184;28;20721;-74
2021/01/26 03:21:08;;;;;;;11.53;10.33;;;;;;;-3.57;100.00;97651.56;4995017;28;20464;-75
2021/01/26 03:23:39;;;;;;;12.43;11.20;;;;;;;-3.61;100.00;97652.63;4998833;28;20225;-76
2021/01/26 03:26:10;;;;;;;12.03;10.93;;;;;;;-3.59;100.00;97648.25;5002917;28;20820;-76
2021/01/26 03:28:38;;;;;;;13.70;12.30;;;;;;;-3.45;100.00;97641.44;5000980;28;20459;-74
2021/01/26 03:31:06;;;;;;;14.17;12.77;;;;;;;-3.53;100.00;97647.91;5002688;28;20612;-77
2021/01/26 03:33:36;;;;;;;13.00;11.73;;;;;;;-3.54;100.00;97638.44;5001751;28;20515;-77
2021/01/26 03:36:04;;;;;;;12.87;11.67;;;;;;;-3.67;100.00;97627.94;4996481;28;20513;-75
2021/01/26 03:38:33;;;;;;;12.90;11.67;;;;;;;-3.63;100.00;97633.75;4996253;28;20487;-76
2021/01/26 03:41:02;;;;;;;13.57;12.23;;;;;;;-3.56;100.00;97634.25;4999191;28;20988;-76
2021/01/26 03:43:30;;;;;;;13.27;11.97;;;;;;;-3.52;100.00;97636.63;4997151;28;20774;-76
2021/01/26 03:46:02;;;;;;;15.47;13.87;;;;;;;-3.45;100.00;97631.09;5001419;28;20903;-76
2021/01/26 03:48:38;;;;;;;16.17;14.57;;;;;;;-3.43;100.00;97624.88;4996548;28;20467;-76
2021/01/26 03:51:07;;;;;;;14.37;12.97;;;;;;;-3.35;100.00;97625.31;5001311;28;20537;-76
2021/01/26 03:53:51;;;;;;;15.23;13.63;;;;;;;-3.38;100.00;97635.84;4999696;28;20470;-75
2021/01/26 03:56:21;;;;;;;15.60;13.97;;;;;;;-3.24;100.00;97623.88;4999094;28;20459;-75
2021/01/26 03:59:02;;;;;;;16.73;15.03;;;;;;;-3.21;100.00;97631.47;5004909;28;21685;-75
2021/01/26 04:01:36;;;;;;;19.37;15.77;;;;;;;-3.13;100.00;97637.03;5001089;28;20539;-75
2021/01/26 04:04:05;;;;;;;16.50;14.77;;;;;;;-2.98;100.00;97643.13;5001475;28;20472;-76
2021/01/26 04:06:36;;;;;;;17.80;15.47;;;;;;;-2.97;100.00;97652.56;5005367;28;21070;-75
2021/01/26 04:09:06;;;;;;;15.90;14.37;;;;;;;-2.92;100.00;97653.13;5001385;28;20456;-76
2021/01/26 04:11:41;;;;;;;16.37;14.67;;;;;;;-2.97;100.00;97649.97;5003740;28;20459;-75
2021/01/26 04:14:12;;;;;;;18.30;16.27;;;;;;;-2.93;100.00;97648.88;5002916;28;20482;-76
2021/01/26 04:16:44;;;;;;;17.03;15.27;;;;;;;-2.85;100.00;97648.44;5005232;28;20818;-76
2021/01/26 04:19:13;;;;;;;18.23;16.33;;;;;;;-2.84;100.00;97659.63;5005234;28;20483;-75
2021/01/26 04:21:40;;;;;;;16.20;14.60;;;;;;;-2.76;100.00;97660.06;5001008;28;20455;-75
2021/01/26 04:24:09;;;;;;;17.13;15.37;;;;;;;-2.80;100.00;97651.59;5003876;28;20467;-74
2021/01/26 04:26:36;;;;;;;16.73;14.80;;;;;;;-2.64;100.00;97651.56;5005372;28;20444;-75
2021/01/26 04:29:03;;;;;;;19.00;16.67;;;;;;;-2.54;100.00;97648.41;5004479;28;20444;-74
2021/01/26 04:31:31;;;;;;;16.37;14.70;;;;;;;-2.62;100.00;97659.25;5003696;28;20458;-75
2021/01/26 04:33:59;;;;;;;18.60;14.90;;;;;;;-2.60;100.00;97656.56;5004248;28;20484;-76
2021/01/26 04:36:26;;;;;;;16.97;15.27;;;;;;;-2.57;100.00;97654.63;5002236;28;21042;-75
2021/01/26 04:38:53;;;;;;;18.03;15.37;;;;;;;-2.60;100.00;97656.56;5001168;28;21029;-75
2021/01/26 04:41:36;;;;;;;15.13;13.67;;;;;;;-2.47;100.00;97660.09;5004969;28;20455;-75
2021/01/26 04:44:24;;;;;;;15.37;13.67;;;;;;;-2.52;100.00;97659.53;4999586;28;20864;-75
2021/01/26 04:47:00;;;;;;;15.70;13.70;;;;;;;-2.40;100.00;97661.44;5004989;28;20448;-75
2021/01/26 04:49:31;;;;;;;15.77;14.17;;;;;;;-2.35;100.00;97666.31;5002306;28;20562;-74
2021/01/26 04:52:06;;;;;;;15.13;13.53;;;;;;;-2.29;100.00;97654.75;5000134;28;20651;-75
2021/01/26 04:54:53;;;;;;;14.43;12.90;;;;;;;-2.29;100.00;97658.16;5001489;28;20475;-75
2021/01/26 04:57:33;;;;;;;15.57;13.63;;;;;;;-2.29;100.00;97654.75;5002572;28;20220;-76
2021/01/26 05:00:08;;;;;;;13.53;12.13;;;;;;;-2.26;100.00;97652.81;5002179;28;20550;-76
2021/01/26 05:02:58;;;;;;;13.80;12.40;;;;;;;-2.20;100.00;97652.44;5001640;28;20483;-75
2021/01/26 05:05:26;;;;;;;15.87;13.40;;;;;;;-2.18;100.00;97654.94;5002302;28;20932;-76
2021/01/26 05:07:56;;;;;;;13.93;12.43;;;;;;;-2.13;100.00;97655.50;5001229;28;20443;-75
2021/01/26 05:10:27;;;;;;;14.70;13.23;;;;;;;-2.16;100.00;97652.25;5003867;28;20207;-74
2021/01/26 05:12:57;;;;;;;16.47;14.77;;;;;;;-2.25;100.00;97653.63;4999808;28;20464;-74
2021/01/26 05:15:28;;;;;;;14.97;13.47;;;;;;;-2.26;100.00;97646.78;4998515;28;20448;-76
2021/01/26 05:18:01;;;;;;;15.40;13.93;;;;;;;-2.30;100.00;97646.13;5001865;28;20444;-75
2021/01/26 05:20:31;;;;;;;15.07;13.67;;;;;;;-2.24;100.00;97650.13;5003155;28;20517;-75
2021/01/26 05:23:03;;;;;;;16.50;14.53;;;;;;;-2.23;100.00;97654.38;5001444;28;20856;-73
2021/01/26 05:25:30;;;;;;;17.47;15.17;;;;;;;-2.30;100.00;97653.09;4999296;28;20444;-75
2021/01/26 05:27:57;;;;;;;16.47;14.23;;;;;;;-2.30;100.00;97653.91;4999035;28;20446;-78
2021/01/26 05:30:29;;;;;;;20.93;16.30;;;;;;;-2.26;100.00;97647.63;4998372;28;20539;-71
2021/01/26 05:32:58;;;;;;;16.70;14.90;;;;;;;-2.28;100.00;97651.22;4999760;28;20522;-71
2021/01/26 05:35:26;;;;;;;16.50;14.77;;;;;;;-2.39;100.00;97647.53;4999887;28;20999;-70
2021/01/26 05:37:54;;;;;;;17.73;15.93;;;;;;;-2.40;100.00;97653.63;5001023;28;20445;-71
2021/01/26 05:40:24;;;;;;;16.87;14.77;;;;;;;-2.34;100.00;97661.06;5001961;28;20735;-75
2021/01/26 05:42:54;;;;;;;17.77;15.93;;;;;;;-2.37;100.00;97653.47;4995513;28;20470;-76
2021/01/26 05:45:25;;;;;;;18.53;16.63;;;;;;;-2.35;100.00;97648.16;5002778;28;20212;-76
2021/01/26 05:48:06;;;;;;;19.73;16.60;;;;;;;-2.38;100.00;97650.94;5000885;28;20209;-76
2021/01/26 05:50:35;;;;;;;16.40;14.67;;;;;;;-2.34;100.00;97645.47;5001398;28;20459;-75
2021/01/26 05:53:11;;;;;;;18.43;15.13;;;;;;;-2.31;100.00;97648.81;5000334;28;20467;-74
2021/01/26 05:55:39;;;;;;;18.23;15.13;;;;;;;-2.22;100.00;97648.25;4999258;28;20458;-75
2021/01/26 05:58:08;;;;;;;17.30;14.70;;;;;;;-2.24;100.00;97650.13;4999459;28;20209;-78
2021/01/26 06:00:36;;;;;;;18.60;14.87;;;;;;;-2.31;100.00;97647.03;5000543;28;20498;-74
2021/01/26 06:03:14;;;;;;;17.30;13.53;;;;;;;-2.30;100.00;97653.91;5000769;28;20471;-73
2021/01/26 06:05:42;;;;;;;15.13;13.63;;;;;;;-2.34;100.00;97660.22;4999124;28;21127;-74
2021/01/26 06:08:12;;;;;;;17.50;15.33;;;;;;;-2.29;100.00;97658.16;5003020;28;20832;-78
2021/01/26 06:10:41;;;;;;;15.77;14.10;;;;;;;-2.28;100.00;97656.44;5000795;28;20444;-75
2021/01/26 06:13:09;;;;;;;17.23;15.13;;;;;;;-2.11;100.00;97648.44;5001991;28;20243;-75
2021/01/26 06:15:37;;;;;;;17.07;13.70;;;;;;;-2.10;100.00;97651.88;4997880;28;20461;-73
2021/01/26 06:18:17;;;;;;;14.80;13.23;;;;;;;-2.04;100.00;97654.09;5002758;28;20860;-73
2021/01/26 06:20:46;;;;;;;15.00;13.40;;;;;;;-2.12;100.00;97658.94;5001177;28;20483;-81
2021/01/26 06:23:17;;;;;;;16.17;13.20;;;;;;;-2.13;100.00;97660.69;5002724;28;20619;-76
2021/01/26 06:25:48;;;;;;;15.97;14.27;;;;;;;-2.08;100.00;97666.47;5003101;28;20448;-76
2021/01/26 06:28:55;;;;;;;17.70;14.27;;;;;;;-2.06;100.00;97667.19;5003253;28;20205;-74
2021/01/26 06:31:32;;;;;;;18.03;13.17;;;;;;;-2.05;100.00;97668.03;5000769;28;20212;-79
2021/01/26 06:34:17;;;;;;;15.13;12.97;;;;;;;-1.96;100.00;97671.84;4999566;28;20231;-78
2021/01/26 06:37:29;;;;;;;14.63;12.97;;;;;;;-2.01;100.00;97668.69;5001795;28;20456;-75
2021/01/26 06:40:31;;;;;;;15.93;12.47;;;;;;;-1.87;100.00;97673.84;4997972;28;20228;-73
2021/01/26 06:43:03;;;;;;;18.20;16.42;;;;;;;-1.95;100.00;97678.69;4998342;28;20459;-75
2021/01/26 06:45:35;;;;;;;14.87;13.37;;;;;;;-1.92;100.00;97674.13;5001873;28;20561;-74
2021/01/26 06:48:29;;;;;;;15.60;13.90;;;;;;;-2.02;100.00;97674.81;5007424;28;20828;-74
2021/01/26 06:51:07;;;;;;;14.87;13.27;;;;;;;-1.93;100.00;97680.25;5004916;28;20442;-75
2021/01/26 06:53:45;;;;;;;16.13;14.10;;;;;;;-1.95;100.00;97679.50;5006689;28;20220;-74
2021/01/26 06:56:24;;;;;;;26.77;23.83;;;;;;;-1.85;100.00;97677.19;5005414;28;20585;-77
2021/01/26 06:59:02;;;;;;;23.30;20.83;;;;;;;-1.87;100.00;97681.66;5009091;28;20204;-77
2021/01/26 07:01:40;;;;;;;18.57;16.43;;;;;;;-1.93;100.00;97677.66;5006611;28;20439;-76
2021/01/26 07:04:20;;;;;;;17.53;15.77;;;;;;;-1.85;100.00;97685.00;5008547;28;20859;-75
2021/01/26 07:07:08;;;;;;;16.43;14.73;;;;;;;-1.91;100.00;97664.59;5003890;28;20239;-74
2021/01/26 07:09:43;;;;;;;19.97;17.87;;;;;;;-1.82;100.00;97677.00;5006121;28;20633;-79
2021/01/26 07:12:36;;;;;;;15.73;13.80;;;;;;;-1.84;100.00;97686.66;5007182;28;20203;-75
2021/01/26 07:15:24;;;;;;;17.40;13.10;;;;;;;-1.87;100.00;97675.63;5005693;28;20589;-73
2021/01/26 07:18:07;;;;;;;17.13;13.47;;;;;;;-1.87;100.00;97673.03;5006465;28;20455;-75
2021/01/26 07:20:39;;;;;;;15.80;12.50;;;;;;;-1.80;100.00;97672.56;5002314;28;20239;-73
2021/01/26 07:23:19;;;;;;;14.57;12.43;;;;;;;-1.84;100.00;97668.47;5007959;28;20235;-76
2021/01/26 07:26:13;;;;;;;18.23;12.77;;;;;;;-1.86;100.00;97669.50;5004537;28;21182;-73
2021/01/26 07:29:03;;;;;;;12.23;11.00;;;;;;;-1.78;100.00;97670.69;5007864;28;20454;-77
2021/01/26 07:31:34;;;;;;;13.17;11.80;;;;;;;-1.81;100.00;97670.06;5006190;28;20228;-74
2021/01/26 07:34:04;;;;;;;18.33;15.33;;;;;;;-1.80;100.00;97667.34;5004410;28;20693;-74
2021/01/26 07:36:35;;;;;;;17.27;15.47;;;;;;;-1.63;100.00;97670.69;5006645;28;20796;-77
2021/01/26 07:39:06;;;;;;;13.57;11.27;;;;;;;-1.57;100.00;97680.69;5005711;28;20201;-78
2021/01/26 07:41:52;;;;;;;10.93;9.87;;;;;;;-1.47;100.00;97680.97;5006565;28;20300;-76
2021/01/26 07:44:23;;;;;;;12.83;11.53;;;;;;;-1.38;100.00;97684.72;5005934;28;20463;-76
2021/01/26 07:46:54;;;;;;;12.43;11.13;;;;;;;-1.31;100.00;97686.84;5006776;28;20611;-78
2021/01/26 07:49:27;;;;;;;11.30;10.00;;;;;;;-1.42;100.00;97693.66;5000944;28;21277;-78
2021/01/26 07:51:57;;;;;;;12.03;10.93;;;;;;;-1.37;100.00;97684.66;5004584;28;20690;-79
2021/01/26 07:54:31;;;;;;;11.17;10.00;;;;;;;-1.40;100.00;97682.25;5004584;28;20224;-79
2021/01/26 07:57:01;;;;;;;17.27;14.47;;;;;;;-1.46;100.00;97662.66;5007807;28;20216;-78
2021/01/26 07:59:30;;;;;;;12.13;10.93;;;;;;;-1.44;100.00;97670.38;5003236;28;20479;-74
2021/01/26 08:01:59;;;;;;;20.97;18.77;;;;;;;-1.38;100.00;97702.94;5000326;28;20444;-76
2021/01/26 08:04:37;;;;;;;14.13;12.63;;;;;;;-1.35;100.00;97702.75;5002073;28;20587;-75
2021/01/26 08:07:04;;;;;;;16.10;14.50;;;;;;;-1.40;100.00;97682.25;5002413;28;20756;-74
2021/01/26 08:09:39;;;;;;;16.80;15.00;;;;;;;-1.37;100.00;97694.19;5001666;28;20747;-76
2021/01/26 08:12:08;;;;;;;14.97;13.27;;;;;;;-1.37;100.00;97686.41;5003035;28;20442;-75
2021/01/26 08:14:41;;;;;;;17.93;16.20;;;;;;;-1.41;100.00;97700.53;5004351;28;20490;-74
2021/01/26 08:17:11;;;;;;;13.97;12.47;;;;;;;-1.36;100.00;97688.91;5002417;28;20379;-77
2021/01/26 08:19:43;;;;;;;14.87;13.30;;;;;;;-1.36;100.00;97695.88;5001508;28;20217;-77
2021/01/26 08:22:20;;;;;;;16.00;14.47;;;;;;;-1.41;100.00;97685.78;5004497;28;20447;-76
2021/01/26 08:24:49;;;;;;;14.17;11.37;;;;;;;-1.44;100.00;97700.72;5002239;28;20451;-76
2021/01/26 08:27:31;;;;;;;16.77;13.43;;;;;;;-1.43;100.00;97703.25;5004984;28;20926;-76
2021/01/26 08:30:00;;;;;;;15.93;13.73;;;;;;;-1.38;100.00;97695.97;5000379;28;20443;-77
2021/01/26 08:32:44;;;;;;;13.53;11.53;;;;;;;-1.36;100.00;97701.91;5001630;28;20209;-76
2021/01/26 08:35:15;;;;;;;13.00;11.67;;;;;;;-1.37;100.00;97700.25;5001869;28;20444;-75
2021/01/26 08:37:47;;;;;;;13.17;11.77;;;;;;;-1.36;100.00;97694.13;5002609;28;20791;-77
2021/01/26 08:40:21;;;;;;;12.77;11.53;;;;;;;-1.32;100.00;97694.78;5000662;28;20225;-76
2021/01/26 08:43:02;;;;;;;12.33;11.13;;;;;;;-1.24;100.00;97687.31;4997597;28;20229;-77
2021/01/26 08:45:52;;;;;;;14.87;11.23;;;;;;;-1.27;100.00;97694.47;5002691;28;21028;-79
2021/01/26 08:48:25;;;;;;;11.90;10.80;;;;;;;-1.18;100.00;97688.66;5004303;28;20217;-77
2021/01/26 08:51:11;;;;;;;11.63;10.53;;;;;;;-1.15;100.00;97688.47;5002048;28;20201;-78
2021/01/26 08:53:39;;;;;;;11.53;10.40;;;;;;;-1.02;100.00;97704.97;5002360;28;20483;-76
2021/01/26 08:56:39;;;;;;;9.97;9.07;;;;;;;-1.08;100.00;97704.53;5002704;28;20440;-78
2021/01/26 08:59:09;;;;;;;10.63;9.60;;;;;;;-1.08;100.00;97701.94;5001823;28;21528;-74
2021/01/26 09:01:46;;;;;;;14.47;11.47;;;;;;;-1.15;100.00;97705.84;5003274;28;20968;-75
2021/01/26 09:04:41;;;;;;;11.83;10.17;;;;;;;-1.28;100.00;97716.19;4999403;28;20907;-77
2021/01/26 09:07:08;;;;;;;12.03;10.93;;;;;;;-1.34;100.00;97707.00;4993917;28;20205;-74
2021/01/26 09:09:52;;;;;;;12.30;11.10;;;;;;;-1.34;100.00;97710.47;5003964;28;20220;-76
2021/01/26 09:12:25;;;;;;;15.57;11.63;;;;;;;-1.27;100.00;97710.06;5002997;28;20214;-78
2021/01/26 09:14:59;;;;;;;14.20;11.13;;;;;;;-1.29;100.00;97720.56;4999868;28;20200;-76
2021/01/26 09:17:32;;;;;;;11.07;10.03;;;;;;;-1.23;100.00;97717.59;4997335;28;20448;-75
2021/01/26 09:20:09;;;;;;;11.97;10.87;;;;;;;-1.13;100.00;97714.41;4996442;28;20914;-75
2021/01/26 09:22:36;;;;;;;13.13;10.57;;;;;;;-1.06;100.00;97705.25;5002858;28;20443;-75
2021/01/26 09:25:06;;;;;;;10.43;9.17;;;;;;;-1.02;100.00;97719.75;4997357;28;21224;-75
2021/01/26 09:27:35;;;;;;;10.00;9.10;;;;;;;-0.97;100.00;97729.88;5000925;28;20263;-76
2021/01/26 09:30:19;;;;;;;10.87;9.73;;;;;;;-0.91;100.00;97725.13;5000535;28;20681;-74
2021/01/26 09:32:57;;;;;;;11.30;9.57;;;;;;;-0.85;100.00;97728.25;5002870;28;20228;-76
2021/01/26 09:35:29;;;;;;;10.00;8.93;;;;;;;-0.68;100.00;97730.59;4997681;28;20204;-72
2021/01/26 09:38:08;;;;;;;8.57;7.83;;;;;;;-0.65;100.00;97733.00;4997690;28;20296;-77
2021/01/26 09:40:37;;;;;;;8.43;6.80;;;;;;;-0.69;100.00;97726.31;5000569;28;20233;-73
2021/01/26 09:43:10;;;;;;;7.73;6.97;;;;;;;-0.75;100.00;97743.19;5002612;28;20229;-76
2021/01/26 09:45:38;;;;;;;7.43;6.73;;;;;;;-0.63;100.00;97741.53;5001235;28;20209;-75
2021/01/26 09:48:06;;;;;;;7.83;7.03;;;;;;;-0.63;100.00;97740.72;5001836;28;20204;-75
2021/01/26 09:50:33;;;;;;;7.57;6.87;;;;;;;-0.63;100.00;97741.53;5003453;28;20448;-75
2021/01/26 09:53:03;;;;;;;7.33;6.83;;;;;;;-0.61;100.00;97746.66;5002817;28;21201;-77
2021/01/26 09:55:31;;;;;;;7.33;6.63;;;;;;;-0.54;100.00;97736.69;4998453;28;20232;-76
2021/01/26 09:57:59;;;;;;;10.13;9.03;;;;;;;-0.36;100.00;97743.28;5001577;28;20219;-76
2021/01/26 10:00:28;;;;;;;8.50;7.80;;;;;;;-0.29;100.00;97748.91;5002462;28;20227;-74
2021/01/26 10:02:57;;;;;;;8.20;7.40;;;;;;;-0.28;100.00;97744.53;5002612;28;20290;-79
2021/01/26 10:05:26;;;;;;;7.33;5.97;;;;;;;-0.20;100.00;97757.88;5002816;28;20205;-77
2021/01/26 10:08:12;;;;;;;7.67;6.97;;;;;;;-0.22;100.00;97746.72;4998864;28;20209;-80
2021/01/26 10:10:40;;;;;;;6.30;5.80;;;;;;;-0.33;100.00;97750.06;5000276;28;20587;-80
2021/01/26 10:13:34;;;;;;;6.63;6.13;;;;;;;-0.33;100.00;97761.28;5001680;28;20236;-75
2021/01/26 10:16:28;;;;;;;6.93;6.33;;;;;;;-0.28;99.55;97779.22;4998150;28;20666;-80
2021/01/26 10:18:55;;;;;;;7.03;6.53;;;;;;;-0.27;100.00;97772.25;4998080;28;20204;-80
2021/01/26 10:21:28;;;;;;;8.27;7.43;;;;;;;-0.10;99.66;97769.38;4996400;28;20237;-73
2021/01/26 10:24:00;;;;;;;7.23;6.63;;;;;;;-0.08;99.42;97774.44;5001240;28;20295;-75
2021/01/26 10:26:28;;;;;;;8.73;7.37;;;;;;;-0.19;99.33;97770.81;5001200;28;20205;-77
2021/01/26 10:28:59;;;;;;;7.10;6.50;;;;;;;-0.05;99.91;97764.69;5002204;28;20201;-78
2021/01/26 10:31:28;;;;;;;6.80;6.20;;;;;;;-0.05;100.00;97775.09;5000075;28;20691;-77
2021/01/26 10:33:56;;;;;;;6.83;6.13;;;;;;;-0.22;99.28;97788.38;4998497;28;20260;-78
2021/01/26 10:36:30;;;;;;;6.77;6.07;;;;;;;-0.24;99.30;97785.06;4999999;28;20267;-74
2021/01/26 10:38:59;;;;;;;7.47;6.83;;;;;;;-0.35;100.00;97793.59;5001008;28;20204;-77
2021/01/26 10:41:28;;;;;;;8.30;7.60;;;;;;;-0.39;100.00;97813.78;4998110;28;20729;-74
2021/01/26 10:44:05;;;;;;;6.27;5.77;;;;;;;-0.42;100.00;97798.34;4998096;28;20248;-74
2021/01/26 10:46:35;;;;;;;6.67;6.17;;;;;;;-0.33;100.00;97804.75;4999848;28;20213;-77
2021/01/26 10:49:15;;;;;;;11.60;10.70;;;;;;;-0.36;100.00;97802.34;4999422;28;20212;-77
2021/01/26 10:51:43;;;;;;;8.57;7.63;;;;;;;-0.41;100.00;97792.22;5000115;28;20223;-78
2021/01/26 10:54:10;;;;;;;9.20;8.30;;;;;;;-0.41;100.00;97809.59;4999623;28;20313;-76
2021/01/26 10:56:38;;;;;;;10.50;6.73;;;;;;;-0.41;100.00;97804.38;4997960;28;20216;-75
2021/01/26 10:59:05;;;;;;;10.23;6.60;;;;;;;-0.41;100.00;97800.03;5003083;28;20212;-79
2021/01/26 11:01:33;;;;;;;8.10;7.03;;;;;;;-0.44;100.00;97810.63;5000063;28;20582;-75
2021/01/26 11:04:00;;;;;;;8.77;7.97;;;;;;;-0.50;100.00;97801.44;5001497;28;20601;-75
2021/01/26 11:06:28;;;;;;;10.30;7.10;;;;;;;-0.41;100.00;97809.59;5001856;28;20205;-76
2021/01/26 11:08:55;;;;;;;7.13;6.50;;;;;;;-0.42;100.00;97790.53;5001497;28;20940;-75
2021/01/26 11:11:24;;;;;;;7.17;6.57;;;;;;;-0.34;100.00;97801.28;5001506;28;20197;-74
2021/01/26 11:13:52;;;;;;;7.13;6.43;;;;;;;-0.23;100.00;97803.19;5001188;28;20243;-75
2021/01/26 11:16:19;;;;;;;10.60;6.90;;;;;;;-0.23;100.00;97790.19;4999674;28;20236;-75
2021/01/26 11:18:47;;;;;;;6.87;5.97;;;;;;;-0.21;100.00;97818.72;5001957;28;20312;-74
2021/01/26 11:21:14;;;;;;;6.73;6.13;;;;;;;-0.25;100.00;97812.03;5001357;28;20251;-75
2021/01/26 11:23:42;;;;;;;7.20;6.50;;;;;;;-0.21;100.00;97805.69;5000859;28;20709;-75
2021/01/26 11:26:11;;;;;;;5.80;5.27;;;;;;;-0.16;100.00;97808.84;4998372;28;20213;-76
2021/01/26 11:28:38;;;;;;;6.77;6.20;;;;;;;-0.17;100.00;97815.00;4999446;28;20888;-74
2021/01/26 11:31:05;;;;;;;6.40;5.80;;;;;;;-0.16;100.00;97819.28;4997519;28;20220;-76
2021/01/26 11:33:32;;;;;;;6.93;6.10;;;;;;;-0.10;100.00;97805.84;5001864;28;20221;-75
2021/01/26 11:36:00;;;;;;;6.93;6.20;;;;;;;-0.06;100.00;97804.69;4999955;28;20200;-75
2021/01/26 11:38:27;;;;;;;9.33;6.93;;;;;;;-0.12;100.00;97819.88;5000585;28;20205;-76
2021/01/26 11:40:56;;;;;;;7.07;6.33;;;;;;;-0.08;100.00;97796.16;5000231;28;20261;-80
2021/01/26 11:43:23;;;;;;;6.80;6.10;;;;;;;-0.12;99.99;97810.31;5008363;28;20720;-71